Alief, Texas
Current Conditions -  °F | °C
As of 9:53 AM on Friday 24 Oct 2014 (Local Time) from KSGR Reporting Station
Clear Clear  
Wind Chill: 67°   Ceiling: Unl
Heat Index: 67°   Visibility: 10mi
Dew Point: 55°   Wind: 5mph
Humidity: 66%   Direction: 30°NNE
Pressure: 30.17"   Gusts: NA
Location:  29.71°N, 95.6°W
Report Text: KSGR 241453Z 03004KT 10SM CLR 19/13 A3017 RMK AO2 SLP219 T01940128 51017
Loading
Personal Weather Stations






























Interactive Weather Map
Tropical Storm Tracking
New forecast layout! Learn more

10-Day Weather Forecast

Advertisements
Track Severe Weather on mobile